createdAt,value
2023-05-01T00:01:26.352Z,1.70
2023-05-01T00:04:28.263Z,2.13
2023-05-01T00:07:31.090Z,1.80
2023-05-01T00:10:36.287Z,1.43
2023-05-01T00:13:38.491Z,1.70
2023-05-01T00:16:40.303Z,2.13
2023-05-01T00:19:42.377Z,2.30
2023-05-01T00:22:44.092Z,1.90
2023-05-01T00:25:45.802Z,1.50
2023-05-01T00:28:47.516Z,2.17
2023-05-01T00:31:49.354Z,2.07
2023-05-01T00:34:51.468Z,1.90
2023-05-01T00:37:53.362Z,2.10
2023-05-01T00:40:55.152Z,2.03
2023-05-01T00:43:57.847Z,2.80
2023-05-01T00:47:00.901Z,2.20
2023-05-01T00:50:03.913Z,1.90
2023-05-01T00:53:06.035Z,1.97
2023-05-01T00:56:08.613Z,2.37
2023-05-01T00:59:10.698Z,2.27
2023-05-01T01:02:15.228Z,2.00
2023-05-01T01:05:17.093Z,2.00
2023-05-01T01:08:30.699Z,2.23
2023-05-01T01:11:42.415Z,1.97
2023-05-01T01:15:27.100Z,1.90
2023-05-01T01:18:48.459Z,1.80
2023-05-01T01:21:55.275Z,1.47
2023-05-01T01:25:34.323Z,2.23
2023-05-01T01:28:54.215Z,2.00
2023-05-01T01:32:19.511Z,2.70
2023-05-01T01:35:26.430Z,2.70
2023-05-01T01:38:43.582Z,2.33
2023-05-01T01:41:51.073Z,2.23
2023-05-01T01:44:55.787Z,2.17
2023-05-01T01:47:57.597Z,2.00
2023-05-01T01:51:00.957Z,2.47
2023-05-01T01:54:04.766Z,1.80
2023-05-01T01:57:08.406Z,2.23
2023-05-01T02:00:12.621Z,2.50
2023-05-01T02:03:24.203Z,2.43
2023-05-01T02:06:26.799Z,2.23
2023-05-01T02:09:30.286Z,2.00
2023-05-01T02:12:33.169Z,2.63
2023-05-01T02:15:40.707Z,2.10
2023-05-01T02:18:44.717Z,2.57
2023-05-01T02:21:48.379Z,2.40
2023-05-01T02:24:50.572Z,2.67
2023-05-01T02:28:07.868Z,2.17
2023-05-01T02:31:10.398Z,1.93
2023-05-01T02:34:12.397Z,2.13
2023-05-01T02:37:14.312Z,2.67
2023-05-01T02:40:18.898Z,3.37
2023-05-01T02:43:22.853Z,2.77
2023-05-01T02:46:29.272Z,2.67
2023-05-01T02:49:32.468Z,2.50
2023-05-01T02:52:35.092Z,2.50
2023-05-01T02:55:59.374Z,2.50
2023-05-01T02:59:01.402Z,2.30
2023-05-01T03:02:03.826Z,2.33
2023-05-01T03:05:06.310Z,2.83
2023-05-01T03:08:08.288Z,2.90
2023-05-01T03:11:10.135Z,2.17
2023-05-01T03:14:14.880Z,2.60
2023-05-01T03:17:16.869Z,2.10
2023-05-01T03:20:18.636Z,2.43
2023-05-01T03:23:21.257Z,2.20
2023-05-01T03:26:23.294Z,2.03
2023-05-01T03:29:26.003Z,2.37
2023-05-01T03:32:29.713Z,2.63
2023-05-01T03:35:32.619Z,2.67
2023-05-01T03:38:36.699Z,2.33
2023-05-01T03:41:44.619Z,2.50
2023-05-01T03:44:55.755Z,2.83
2023-05-01T03:47:58.743Z,2.53
2023-05-01T03:51:00.651Z,2.60
2023-05-01T03:54:03.360Z,2.37
2023-05-01T03:57:12.701Z,2.10
2023-05-01T04:00:14.968Z,2.87
2023-05-01T04:03:21.997Z,2.47
2023-05-01T04:06:27.302Z,2.27
2023-05-01T04:09:30.066Z,2.50
2023-05-01T04:12:33.273Z,2.87
2023-05-01T04:15:35.391Z,2.53
2023-05-01T04:18:37.750Z,2.53
2023-05-01T04:21:39.456Z,2.60
2023-05-01T04:24:41.409Z,2.50
2023-05-01T04:27:43.664Z,2.70
2023-05-01T04:30:46.703Z,2.30
2023-05-01T04:33:48.919Z,2.60
2023-05-01T04:36:52.088Z,2.23
2023-05-01T04:39:55.680Z,2.63
2023-05-01T04:42:58.988Z,3.03
2023-05-01T04:46:01.210Z,2.57
2023-05-01T04:49:03.070Z,3.00
2023-05-01T04:52:04.926Z,2.43
2023-05-01T04:55:19.150Z,2.73
2023-05-01T04:58:44.469Z,3.00
2023-05-01T05:01:50.657Z,2.90
2023-05-01T05:04:54.156Z,2.67
2023-05-01T05:07:56.261Z,2.33
2023-05-01T05:11:10.870Z,2.60
2023-05-01T05:14:33.434Z,2.50
2023-05-01T05:17:35.743Z,2.70
2023-05-01T05:20:40.877Z,2.50
2023-05-01T05:23:43.361Z,2.17
2023-05-01T05:26:45.420Z,2.93
2023-05-01T05:29:47.490Z,2.60
2023-05-01T05:32:49.827Z,2.67
2023-05-01T05:35:52.635Z,2.77
2023-05-01T05:38:59.200Z,2.40
2023-05-01T05:42:03.840Z,2.60
2023-05-01T05:45:07.306Z,2.50
2023-05-01T05:48:09.633Z,2.80
2023-05-01T05:51:14.592Z,3.20
2023-05-01T05:54:16.792Z,2.73
2023-05-01T05:57:20.588Z,3.03
2023-05-01T06:00:25.462Z,2.67
2023-05-01T06:03:27.952Z,2.73
2023-05-01T06:06:34.721Z,2.90
2023-05-01T06:09:37.448Z,2.63
2023-05-01T06:12:41.672Z,2.73
2023-05-01T06:15:54.438Z,2.63
2023-05-01T06:18:56.401Z,2.80
2023-05-01T06:21:58.528Z,3.00
2023-05-01T06:25:01.645Z,3.17
2023-05-01T06:28:05.735Z,3.10
2023-05-01T06:31:09.218Z,3.00
2023-05-01T06:34:16.263Z,2.97
2023-05-01T06:37:25.912Z,2.67
2023-05-01T06:40:27.918Z,3.20
2023-05-01T06:43:31.162Z,3.10
2023-05-01T06:46:33.349Z,2.40
2023-05-01T06:49:35.923Z,2.60
2023-05-01T06:52:37.696Z,2.70
2023-05-01T06:55:41.028Z,3.20
2023-05-01T06:58:43.090Z,3.10
2023-05-01T07:01:45.393Z,2.70
2023-05-01T07:04:47.182Z,2.47
2023-05-01T07:07:57.936Z,2.57
2023-05-01T07:11:03.150Z,2.80
2023-05-01T07:14:05.018Z,3.60
2023-05-01T07:17:07.166Z,2.60
2023-05-01T07:20:10.375Z,2.80
2023-05-01T07:23:12.386Z,3.63
2023-05-01T07:26:14.430Z,3.53
2023-05-01T07:29:16.816Z,2.93
2023-05-01T07:32:18.617Z,3.63
2023-05-01T07:35:20.630Z,3.07
2023-05-01T07:38:22.396Z,3.43
2023-05-01T07:41:25.601Z,2.80
2023-05-01T07:44:27.700Z,2.93
2023-05-01T07:47:30.151Z,3.00
2023-05-01T07:50:32.750Z,2.70
2023-05-01T07:53:34.889Z,2.83
2023-05-01T07:56:36.614Z,3.03
2023-05-01T07:59:38.385Z,2.87
2023-05-01T08:02:41.531Z,2.97
2023-05-01T08:05:43.657Z,3.23
2023-05-01T08:08:45.537Z,3.40
2023-05-01T08:11:47.482Z,3.40
2023-05-01T08:14:49.477Z,3.23
2023-05-01T08:17:51.863Z,3.30
2023-05-01T08:20:53.654Z,3.23
2023-05-01T08:23:56.587Z,3.43
2023-05-01T08:26:58.460Z,3.43
2023-05-01T08:33:15.159Z,2.67
2023-05-01T08:36:17.281Z,3.33
2023-05-01T08:39:19.916Z,2.23
2023-05-01T08:42:21.713Z,1.80
2023-05-01T08:45:25.426Z,1.70
2023-05-01T08:48:29.362Z,1.93
2023-05-01T08:51:33.265Z,1.40
2023-05-01T08:54:36.692Z,1.50
2023-05-01T08:57:39.341Z,1.60
2023-05-01T09:00:42.781Z,1.40
2023-05-01T09:03:45.741Z,1.83
2023-05-01T09:06:47.591Z,1.67
2023-05-01T09:09:49.353Z,1.67
2023-05-01T09:13:00.769Z,1.70
2023-05-01T09:16:04.470Z,1.40
2023-05-01T09:19:06.215Z,2.00
2023-05-01T09:22:09.482Z,2.17
2023-05-01T09:25:11.657Z,2.10
2023-05-01T09:28:13.352Z,2.30
2023-05-01T09:31:29.632Z,1.63
2023-05-01T09:34:31.557Z,2.00
2023-05-01T09:37:34.849Z,1.70
2023-05-01T09:40:36.724Z,1.70
2023-05-01T09:43:39.121Z,2.10
2023-05-01T09:46:44.405Z,2.03
2023-05-01T09:49:50.186Z,2.40
2023-05-01T09:52:52.651Z,1.90
2023-05-01T09:56:01.621Z,1.60
2023-05-01T09:59:16.508Z,1.80
2023-05-01T10:02:30.725Z,1.87
2023-05-01T10:05:44.251Z,1.97
2023-05-01T10:08:47.541Z,2.20
2023-05-01T10:11:55.773Z,1.80
2023-05-01T10:14:57.845Z,2.10
2023-05-01T10:18:00.021Z,2.30
2023-05-01T10:21:03.020Z,1.70
2023-05-01T10:24:05.852Z,1.90
2023-05-01T10:27:08.597Z,1.90
2023-05-01T10:30:10.864Z,2.28
2023-05-01T10:33:15.762Z,2.15
2023-05-01T10:36:43.482Z,1.65
2023-05-01T10:39:45.257Z,1.38
2023-05-01T10:43:16.096Z,1.63
2023-05-01T10:46:20.962Z,2.22
2023-05-01T10:49:22.863Z,1.73
2023-05-01T10:52:24.587Z,1.60
2023-05-01T10:55:36.779Z,1.55
2023-05-01T10:58:38.589Z,1.48
2023-05-01T11:01:48.559Z,0.95
2023-05-01T11:04:51.693Z,1.00
2023-05-01T11:08:31.550Z,1.00
2023-05-01T11:11:33.232Z,2.60
2023-05-01T11:14:53.728Z,1.63
2023-05-01T11:17:56.181Z,1.40
2023-05-01T11:20:58.241Z,1.65
2023-05-01T11:24:09.522Z,1.42
2023-05-01T11:27:13.679Z,1.15
2023-05-01T11:30:16.211Z,0.95
2023-05-01T11:33:23.295Z,0.50
2023-05-01T11:36:26.933Z,0.55
2023-05-01T11:39:29.017Z,0.70
2023-05-01T11:42:30.803Z,0.85
2023-05-01T11:45:34.841Z,0.77
2023-05-01T11:48:37.109Z,0.50
2023-05-01T11:51:39.005Z,0.50
2023-05-01T11:54:49.788Z,0.40
2023-05-01T11:57:53.410Z,1.67
2023-05-01T12:00:55.184Z,0.90
2023-05-01T12:03:57.384Z,0.60
2023-05-01T12:06:59.430Z,0.73
2023-05-01T12:10:01.310Z,0.52
2023-05-01T12:13:08.073Z,0.75
2023-05-01T12:16:10.689Z,0.50
2023-05-01T12:19:15.919Z,0.80
2023-05-01T12:22:18.334Z,0.65
2023-05-01T12:25:20.090Z,0.77
2023-05-01T12:28:22.100Z,1.60
2023-05-01T12:31:25.375Z,3.63
2023-05-01T12:34:33.288Z,1.42
2023-05-01T12:37:35.270Z,1.42
2023-05-01T12:40:37.991Z,1.45
2023-05-01T12:43:39.779Z,1.38
2023-05-01T12:46:42.314Z,1.17
2023-05-01T12:49:44.200Z,1.10
2023-05-01T12:52:46.112Z,5.20
2023-05-01T12:55:50.379Z,1.00
2023-05-01T12:58:53.554Z,1.25
2023-05-01T13:02:03.577Z,2.50
2023-05-01T13:05:07.680Z,1.08
2023-05-01T13:08:09.425Z,1.30
2023-05-01T13:11:16.144Z,2.50
2023-05-01T13:14:17.967Z,1.10
2023-05-01T13:17:31.349Z,0.90
2023-05-01T13:20:33.225Z,1.13
2023-05-01T13:23:36.336Z,1.35
2023-05-01T13:26:38.231Z,1.00
2023-05-01T13:29:45.486Z,0.95
2023-05-01T13:32:47.673Z,1.02
2023-05-01T13:35:49.430Z,0.80
2023-05-01T13:38:54.089Z,0.82
2023-05-01T13:41:55.997Z,0.90
2023-05-01T13:44:58.122Z,1.00
2023-05-01T13:48:00.154Z,0.75
2023-05-01T13:51:02.011Z,1.20
2023-05-01T13:54:04.463Z,0.95
2023-05-01T13:57:06.255Z,1.15
2023-05-01T14:00:10.637Z,0.75
2023-05-01T14:03:16.292Z,0.80
2023-05-01T14:06:19.918Z,0.60
2023-05-01T14:09:22.016Z,0.88
2023-05-01T14:12:33.960Z,0.77
2023-05-01T14:15:35.999Z,0.70
2023-05-01T14:18:48.235Z,1.10
2023-05-01T14:21:49.979Z,0.80
2023-05-01T14:24:51.755Z,1.13
2023-05-01T14:27:54.969Z,1.13
2023-05-01T14:30:56.762Z,0.80
2023-05-01T14:34:01.138Z,0.80
2023-05-01T14:37:02.845Z,1.23
2023-05-01T14:40:13.765Z,0.80
2023-05-01T14:43:20.076Z,1.00
2023-05-01T14:46:33.307Z,0.98
2023-05-01T14:49:35.740Z,0.80
2023-05-01T14:52:39.151Z,0.77
2023-05-01T14:55:41.821Z,0.80
2023-05-01T14:58:43.588Z,0.70
2023-05-01T15:01:45.474Z,1.00
2023-05-01T15:04:47.350Z,1.15
2023-05-01T15:07:49.186Z,0.70
2023-05-01T15:10:52.832Z,0.98
2023-05-01T15:13:54.716Z,1.40
2023-05-01T15:16:56.519Z,1.70
2023-05-01T15:19:58.317Z,1.43
2023-05-01T15:23:00.015Z,1.73
2023-05-01T15:26:01.831Z,2.35
2023-05-01T15:29:03.566Z,2.00
2023-05-01T15:32:12.392Z,2.30
2023-05-01T15:35:14.735Z,2.70
2023-05-01T15:38:16.807Z,2.13
2023-05-01T15:41:19.281Z,1.63
2023-05-01T15:44:21.129Z,1.60
2023-05-01T15:47:22.982Z,1.47
2023-05-01T15:50:24.728Z,1.57
2023-05-01T15:53:26.450Z,3.10
2023-05-01T15:56:28.842Z,2.87
2023-05-01T15:59:30.788Z,2.80
2023-05-01T16:02:32.748Z,2.80
2023-05-01T16:05:37.130Z,3.50
2023-05-01T16:08:39.271Z,3.50
2023-05-01T16:11:41.012Z,3.77
2023-05-01T16:14:42.845Z,2.97
2023-05-01T16:17:46.374Z,3.20
2023-05-01T16:20:48.267Z,3.10
2023-05-01T16:23:51.566Z,2.77
2023-05-01T16:26:53.353Z,3.00
2023-05-01T16:29:55.184Z,2.63
2023-05-01T16:32:56.987Z,2.97
2023-05-01T16:35:59.562Z,2.40
2023-05-01T16:39:01.299Z,2.70
2023-05-01T16:42:03.178Z,2.70
2023-05-01T16:45:08.563Z,3.30
2023-05-01T16:48:10.662Z,2.93
2023-05-01T16:51:12.367Z,3.50
2023-05-01T16:54:14.957Z,3.63
2023-05-01T16:57:17.149Z,3.20
2023-05-01T17:00:19.569Z,3.10
2023-05-01T17:03:21.259Z,3.13
2023-05-01T17:06:23.020Z,2.90
2023-05-01T17:09:24.781Z,2.70
2023-05-01T17:12:30.565Z,3.07
2023-05-01T17:15:32.534Z,4.23
2023-05-01T17:18:34.545Z,4.70
2023-05-01T17:21:36.249Z,3.93
2023-05-01T17:24:38.227Z,4.10
2023-05-01T17:27:40.072Z,3.17
2023-05-01T17:30:41.763Z,2.80
2023-05-01T17:33:43.481Z,3.00
2023-05-01T17:36:45.426Z,3.07
2023-05-01T17:39:47.104Z,2.70
2023-05-01T17:42:48.862Z,2.60
2023-05-01T17:45:50.603Z,3.27
2023-05-01T17:48:52.541Z,3.20
2023-05-01T17:51:54.258Z,3.40
2023-05-01T17:54:56.001Z,3.20
2023-05-01T17:57:57.813Z,3.13
2023-05-01T18:00:59.532Z,2.63
2023-05-01T18:04:01.427Z,2.97
2023-05-01T18:07:03.544Z,2.93
2023-05-01T18:10:05.737Z,3.20
2023-05-01T18:13:07.519Z,2.63
2023-05-01T18:16:09.908Z,2.80
2023-05-01T18:19:12.841Z,2.73
2023-05-01T18:22:14.892Z,7.13
2023-05-01T18:25:17.147Z,4.53
2023-05-01T18:28:19.086Z,4.60
2023-05-01T18:31:20.930Z,7.27
2023-05-01T18:34:22.657Z,5.87
2023-05-01T18:37:25.807Z,7.03
2023-05-01T18:40:27.695Z,5.00
2023-05-01T18:43:29.377Z,4.63
2023-05-01T18:46:31.159Z,5.53
2023-05-01T18:49:32.883Z,5.10
2023-05-01T18:52:36.890Z,4.40
2023-05-01T18:55:38.585Z,5.13
2023-05-01T18:58:40.263Z,4.10
2023-05-01T19:01:41.996Z,4.47
2023-05-01T19:04:56.592Z,5.27
2023-05-01T19:08:01.789Z,5.70
2023-05-01T19:11:04.813Z,4.50
2023-05-01T19:14:06.499Z,4.30
2023-05-01T19:17:08.498Z,4.30
2023-05-01T19:20:10.535Z,4.80
2023-05-01T19:23:12.374Z,5.43
2023-05-01T19:26:14.169Z,5.13
2023-05-01T19:29:15.828Z,3.90
2023-05-01T19:32:17.980Z,3.30
2023-05-01T19:35:19.684Z,4.30
2023-05-01T19:38:21.730Z,4.57
2023-05-01T19:41:23.454Z,5.20
2023-05-01T19:44:25.522Z,6.63
2023-05-01T19:47:27.304Z,6.10
2023-05-01T19:50:28.986Z,6.30
2023-05-01T19:53:31.200Z,6.07
2023-05-01T19:56:32.945Z,5.83
2023-05-01T19:59:38.624Z,6.93
2023-05-01T20:02:41.493Z,5.90
2023-05-01T20:05:43.344Z,5.57
2023-05-01T20:08:45.035Z,6.67
2023-05-01T20:11:46.726Z,5.40
2023-05-01T20:14:48.852Z,4.90
2023-05-01T20:17:50.601Z,5.40
2023-05-01T20:20:52.302Z,5.20
2023-05-01T20:23:54.907Z,6.00
2023-05-01T20:26:59.263Z,4.63
2023-05-01T20:30:01.534Z,5.43
2023-05-01T20:33:03.555Z,4.77
2023-05-01T20:36:06.573Z,4.60
2023-05-01T20:39:08.279Z,5.03
2023-05-01T20:42:10.038Z,4.60
2023-05-01T20:45:11.918Z,5.47
2023-05-01T20:48:13.647Z,5.33
2023-05-01T20:51:18.196Z,4.93
2023-05-01T20:54:19.852Z,5.27
2023-05-01T20:57:21.732Z,5.13
2023-05-01T21:00:23.424Z,5.37
2023-05-01T21:03:25.192Z,5.57
2023-05-01T21:06:27.210Z,5.50
2023-05-01T21:09:28.931Z,5.83
2023-05-01T21:12:30.606Z,6.30
2023-05-01T21:15:33.774Z,6.87
2023-05-01T21:18:36.229Z,6.63
2023-05-01T21:21:38.917Z,7.03
2023-05-01T21:24:43.943Z,7.17
2023-05-01T21:27:45.791Z,8.40
2023-05-01T21:30:49.283Z,7.47
2023-05-01T21:33:51.036Z,8.60
2023-05-01T21:36:52.921Z,8.73
2023-05-01T21:39:56.840Z,9.50
2023-05-01T21:43:00.261Z,9.13
2023-05-01T21:46:02.647Z,10.33
2023-05-01T21:49:04.605Z,9.80
2023-05-01T21:52:08.732Z,10.13
2023-05-01T21:55:17.268Z,11.23
2023-05-01T21:58:19.033Z,11.03
2023-05-01T22:01:22.140Z,10.73
2023-05-01T22:04:23.892Z,10.83
2023-05-01T22:07:25.719Z,12.03
2023-05-01T22:10:27.493Z,11.37
2023-05-01T22:13:33.239Z,11.43
2023-05-01T22:16:35.015Z,11.17
2023-05-01T22:19:37.784Z,11.57
2023-05-01T22:22:41.379Z,11.17
2023-05-01T22:25:43.021Z,12.80
2023-05-01T22:28:45.276Z,12.20
2023-05-01T22:31:46.953Z,11.83
2023-05-01T22:34:48.689Z,13.20
2023-05-01T22:37:50.445Z,12.73
2023-05-01T22:40:52.198Z,13.83
2023-05-01T22:43:53.986Z,13.47
2023-05-01T22:46:55.846Z,13.13
2023-05-01T22:49:57.788Z,12.80
2023-05-01T22:53:00.338Z,12.60
2023-05-01T22:56:02.046Z,12.80
2023-05-01T22:59:03.726Z,13.33
2023-05-01T23:02:05.498Z,13.97
2023-05-01T23:05:08.162Z,13.33
2023-05-01T23:08:10.043Z,14.50
2023-05-01T23:11:15.497Z,14.73
2023-05-01T23:14:18.156Z,14.50
2023-05-01T23:17:19.942Z,15.20
2023-05-01T23:20:23.813Z,14.43
2023-05-01T23:23:30.860Z,15.30
2023-05-01T23:26:32.971Z,15.17
2023-05-01T23:29:35.054Z,15.57
2023-05-01T23:32:40.080Z,15.47
2023-05-01T23:35:41.807Z,15.30
2023-05-01T23:38:43.599Z,17.67
2023-05-01T23:41:45.381Z,17.57
2023-05-01T23:44:47.277Z,16.60
2023-05-01T23:47:48.998Z,15.63
2023-05-01T23:50:50.916Z,16.17
2023-05-01T23:53:52.618Z,17.93
2023-05-01T23:56:54.459Z,18.40
2023-05-01T23:59:56.570Z,18.67
